Time;durP1;ratioP1;P1;durP2;ratioP2;P2;SDS_P1;SDS_P2;PMS_P1;PMS_P2;Temp;Humidity;BMP_temperature;BMP_pressure;BME280_temperature;BME280_humidity;BME280_pressure;Samples;Min_cycle;Max_cycle;Signal;HPM_P1;HPM_P2
2022/01/05 00:00:48;;;;;;;5.70;2.97;;;;;;;7.57;86.50;97805.38;4865988;29;20053;-93
2022/01/05 00:03:21;;;;;;;4.95;2.72;;;;;;;8.01;86.99;97863.72;4866498;29;20045;-93
2022/01/05 00:05:54;;;;;;;5.22;2.75;;;;;;;7.43;87.11;97761.66;4865070;29;20052;-93
2022/01/05 00:08:25;;;;;;;5.35;3.10;;;;;;;7.90;87.38;97847.88;4866265;29;20106;-93
2022/01/05 00:10:56;;;;;;;5.88;3.10;;;;;;;7.32;87.37;97748.31;4865948;29;20044;-93
2022/01/05 00:13:29;;;;;;;5.47;2.60;;;;;;;8.07;87.47;97868.69;4882328;29;20065;-93
2022/01/05 00:16:02;;;;;;;5.60;2.90;;;;;;;7.51;87.49;97767.41;4882623;29;20064;-92
2022/01/05 00:18:35;;;;;;;5.03;2.55;;;;;;;8.36;87.63;97918.94;4882363;29;20059;-94
2022/01/05 00:21:06;;;;;;;4.45;2.70;;;;;;;8.02;87.81;97855.25;4865868;29;20068;-92
2022/01/05 00:23:36;;;;;;;4.68;2.30;;;;;;;7.87;87.72;97814.91;4882971;29;20418;-91
2022/01/05 00:26:09;;;;;;;3.75;2.22;;;;;;;7.75;87.51;97791.50;4865962;29;20497;-91
2022/01/05 00:28:43;;;;;;;5.28;2.90;;;;;;;8.43;88.15;97884.06;4888357;23;20056;-91
2022/01/05 00:31:16;;;;;;;5.35;2.90;;;;;;;7.81;87.24;97782.03;4881955;29;20105;-91
2022/01/05 00:33:53;;;;;;;4.85;2.42;;;;;;;8.15;87.19;97827.06;4882007;29;20057;-90
2022/01/05 00:36:24;;;;;;;4.00;2.15;;;;;;;8.13;87.67;97827.91;4851043;29;20078;-91
2022/01/05 00:38:58;;;;;;;5.90;2.10;;;;;;;7.99;87.17;97819.75;4882285;29;20056;-91
2022/01/05 00:41:34;;;;;;;4.95;2.40;;;;;;;8.16;87.54;97831.28;4865447;29;20139;-91
2022/01/05 00:44:09;;;;;;;4.55;2.25;;;;;;;7.87;86.84;97798.84;4850259;29;20060;-91
2022/01/05 00:46:44;;;;;;;7.95;2.55;;;;;;;7.70;87.00;97766.16;4882246;29;20049;-92
2022/01/05 00:49:48;;;;;;;5.43;2.60;;;;;;;7.80;86.82;97797.28;4881777;29;20060;-92
2022/01/05 00:52:39;;;;;;;5.82;2.30;;;;;;;8.55;86.91;97906.69;4865608;29;20147;-91
2022/01/05 00:55:12;;;;;;;4.32;2.50;;;;;;;8.54;87.02;97905.03;4881616;29;20082;-91
2022/01/05 00:57:45;;;;;;;4.82;2.50;;;;;;;8.54;86.71;97910.13;4882068;29;20048;-90
2022/01/05 01:00:17;;;;;;;4.15;2.25;;;;;;;8.19;87.05;97848.97;4865133;29;20144;-90
2022/01/05 01:02:50;;;;;;;5.43;2.92;;;;;;;8.54;87.17;97905.03;4881879;29;20510;-89
2022/01/05 01:05:23;;;;;;;7.38;3.10;;;;;;;8.23;87.00;97840.44;4882432;29;20056;-90
2022/01/05 01:07:56;;;;;;;5.53;3.03;;;;;;;8.07;87.21;97815.34;4881835;29;20045;-87
2022/01/05 01:10:29;;;;;;;5.38;2.70;;;;;;;7.85;86.85;97785.31;4881412;29;20460;-91
2022/01/05 01:13:03;;;;;;;6.47;2.80;;;;;;;8.13;86.96;97837.25;4881358;29;20403;-91
2022/01/05 01:15:49;;;;;;;5.93;3.00;;;;;;;8.08;86.94;97839.91;4849708;29;20053;-91
2022/01/05 01:18:22;;;;;;;4.90;2.63;;;;;;;7.58;86.70;97765.59;4881076;29;20052;-91
2022/01/05 01:20:56;;;;;;;7.13;2.85;;;;;;;8.01;87.03;97838.31;4881227;29;20530;-91
2022/01/05 01:23:30;;;;;;;6.03;3.20;;;;;;;7.62;86.58;97783.28;4881139;29;20053;-91
2022/01/05 01:26:03;;;;;;;4.60;2.63;;;;;;;8.36;87.16;97900.31;4864556;29;20060;-91
2022/01/05 01:28:34;;;;;;;4.53;2.28;;;;;;;7.30;86.72;97706.91;4880367;29;20066;-91
2022/01/05 01:31:12;;;;;;;6.70;2.67;;;;;;;8.26;86.98;97881.00;4881053;29;20420;-92
2022/01/05 01:33:43;;;;;;;5.35;3.10;;;;;;;7.50;87.00;97773.34;4881429;29;20042;-90
2022/01/05 01:36:14;;;;;;;5.45;3.08;;;;;;;7.86;87.19;97818.34;4881274;29;20048;-91
2022/01/05 01:38:48;;;;;;;6.28;2.70;;;;;;;8.22;87.27;97887.03;4864854;29;20059;-91
2022/01/05 01:41:23;;;;;;;5.05;2.90;;;;;;;7.83;86.68;97812.47;4880890;29;20053;-91
2022/01/05 01:44:06;;;;;;;5.93;3.13;;;;;;;7.13;87.18;97703.88;4881004;29;20407;-91
2022/01/05 01:46:53;;;;;;;5.43;2.63;;;;;;;7.67;87.11;97799.25;4886393;23;20045;-94
2022/01/05 01:49:26;;;;;;;4.22;2.58;;;;;;;7.21;87.57;97729.94;4881250;29;20056;-93
2022/01/05 01:52:02;;;;;;;4.82;2.50;;;;;;;7.80;87.46;97828.59;4880700;29;20063;-94
2022/01/05 01:54:55;;;;;;;4.93;2.47;;;;;;;7.70;87.43;97822.00;4880612;29;20488;-93
2022/01/05 02:01:17;;;;;;;6.53;2.63;;;;;;;8.08;87.81;97878.00;4833010;29;20080;-91
2022/01/05 02:03:58;;;;;;;5.00;2.67;;;;;;;7.71;87.29;97821.16;4843723;29;20186;-91
2022/01/05 02:06:38;;;;;;;5.18;2.90;;;;;;;7.67;87.32;97822.09;4828172;29;20489;-91
2022/01/05 02:09:21;;;;;;;4.78;2.58;;;;;;;7.21;87.42;97735.00;4843430;29;20049;-90
2022/01/05 02:12:15;;;;;;;7.60;2.67;;;;;;;7.81;88.34;97842.97;4843739;29;20137;-92
2022/01/05 02:14:46;;;;;;;4.78;2.35;;;;;;;7.07;87.33;97722.59;4827194;29;20053;-91
2022/01/05 02:17:29;;;;;;;5.20;2.65;;;;;;;8.04;87.89;97878.91;4827736;29;20056;-91
2022/01/05 02:20:22;;;;;;;5.97;2.75;;;;;;;7.03;87.98;97725.22;4844573;29;20089;-91
2022/01/05 02:23:09;;;;;;;5.45;2.83;;;;;;;6.94;87.53;97703.38;4826411;29;20573;-91
2022/01/05 02:26:09;;;;;;;4.55;2.38;;;;;;;7.60;87.66;97829.84;4841800;29;20432;-95
2022/01/05 02:28:42;;;;;;;5.68;3.10;;;;;;;7.92;87.64;97874.06;4841322;29;20153;-93
2022/01/05 02:31:25;;;;;;;5.80;3.00;;;;;;;7.90;87.87;97865.66;4826448;29;20124;-93
2022/01/05 02:33:59;;;;;;;5.38;2.65;;;;;;;7.19;88.34;97759.56;4841810;29;20150;-93
2022/01/05 02:36:35;;;;;;;7.10;2.88;;;;;;;7.52;88.33;97794.47;4846486;29;20049;-93
2022/01/05 02:39:18;;;;;;;6.60;3.08;;;;;;;7.22;88.07;97731.63;4850734;29;20057;-92
2022/01/05 02:41:50;;;;;;;;;;;;;;;7.93;88.26;97845.28;4852218;29;20523;-91
2022/01/05 02:44:27;;;;;;;5.88;2.97;;;;;;;7.90;88.09;97852.94;4852707;29;19925;-92
2022/01/05 02:47:42;;;;;;;4.78;2.58;;;;;;;6.84;88.09;97665.56;4841973;29;20149;-93
2022/01/05 02:51:09;;;;;;;5.07;3.03;;;;;;;7.28;88.01;97731.50;4851063;23;20056;-91
2022/01/05 02:53:43;;;;;;;6.85;2.80;;;;;;;7.20;88.37;97718.94;4880401;29;20053;-93
2022/01/05 02:56:32;;;;;;;5.20;2.90;;;;;;;7.92;88.35;97842.75;4880946;29;20125;-93
2022/01/05 02:59:10;;;;;;;6.63;3.45;;;;;;;7.22;88.81;97718.94;4863913;29;20056;-93
2022/01/05 03:01:57;;;;;;;6.78;3.40;;;;;;;7.37;88.79;97756.69;4880272;29;20056;-93
2022/01/05 03:04:30;;;;;;;5.45;3.53;;;;;;;7.06;88.76;97702.31;4864239;29;20049;-93
2022/01/05 03:07:08;;;;;;;5.68;3.33;;;;;;;7.17;88.38;97716.50;4886657;23;20049;-91
2022/01/05 03:10:07;;;;;;;5.78;3.08;;;;;;;7.00;88.84;97684.69;4880008;29;20512;-96
2022/01/05 03:12:44;;;;;;;6.63;3.45;;;;;;;7.44;88.84;97763.31;4863754;29;20137;-95
2022/01/05 03:15:19;;;;;;;5.47;3.00;;;;;;;7.79;88.83;97810.84;4880737;29;20057;-93
2022/01/05 03:17:51;;;;;;;6.55;3.40;;;;;;;6.78;88.45;97651.28;4880077;29;20045;-93
2022/01/05 03:20:53;;;;;;;6.30;3.22;;;;;;;7.07;88.48;97698.94;4880538;29;20045;-93
2022/01/05 03:23:34;;;;;;;5.28;2.95;;;;;;;7.80;88.77;97815.91;4877131;23;20361;-92
2022/01/05 03:29:53;;;;;;;8.27;4.15;;;;;;;7.92;89.05;97818.19;4877603;29;20407;-91
2022/01/05 03:33:12;;;;;;;6.72;3.50;;;;;;;7.97;88.88;97818.94;4864441;29;20149;-91
2022/01/05 03:36:46;;;;;;;5.90;3.17;;;;;;;7.96;89.20;97817.28;4868385;29;20053;-90
2022/01/05 03:40:37;;;;;;;7.53;4.15;;;;;;;7.91;88.85;97814.00;4863638;29;20053;-93
2022/01/05 03:44:35;;;;;;;7.90;4.10;;;;;;;7.95;88.75;97818.13;4796674;29;20061;-94
2022/01/05 03:59:29;;;;;;;9.65;4.00;;;;;;;8.01;88.15;97843.41;4783596;23;20046;-92
2022/01/05 04:02:51;;;;;;;8.32;4.05;;;;;;;8.02;88.39;97855.25;4883048;29;20056;-93
2022/01/05 04:06:52;;;;;;;6.32;3.60;;;;;;;7.07;88.04;97709.06;4958822;23;20079;-93
2022/01/05 04:10:39;;;;;;;9.55;4.10;;;;;;;7.43;88.34;97769.25;4863265;29;20390;-93
2022/01/05 04:13:57;;;;;;;7.10;3.97;;;;;;;8.00;88.08;97862.06;4864222;29;20046;-92
2022/01/05 04:16:36;;;;;;;7.43;3.80;;;;;;;7.29;87.97;97733.16;4864899;29;20045;-93
2022/01/05 04:19:20;;;;;;;6.45;3.50;;;;;;;7.65;87.95;97795.91;4863935;29;20049;-90
2022/01/05 04:21:54;;;;;;;9.25;3.88;;;;;;;7.84;87.18;97825.16;4864127;29;20050;-88
2022/01/05 04:24:28;;;;;;;7.35;3.53;;;;;;;7.00;88.50;97684.69;4847383;29;20512;-90
2022/01/05 04:27:05;;;;;;;6.85;3.53;;;;;;;7.84;87.82;97825.16;4863838;29;20046;-90
2022/01/05 04:29:40;;;;;;;5.55;3.28;;;;;;;7.20;87.83;97748.53;4863661;29;20057;-89
2022/01/05 04:32:12;;;;;;;7.05;3.78;;;;;;;7.07;87.50;97737.81;4863863;29;20050;-91
2022/01/05 04:34:46;;;;;;;8.90;4.38;;;;;;;7.41;87.77;97773.53;4863999;29;20073;-89
2022/01/05 04:37:36;;;;;;;7.88;4.72;;;;;;;6.96;87.39;97686.44;4862844;29;20052;-93
2022/01/05 04:40:10;;;;;;;7.18;4.00;;;;;;;6.97;88.04;97689.81;4863991;29;20080;-91
2022/01/05 04:42:46;;;;;;;8.32;4.28;;;;;;;7.03;88.12;97689.72;4847675;29;20105;-91
2022/01/05 04:45:26;;;;;;;6.90;3.92;;;;;;;7.17;88.02;97725.78;4862697;29;20500;-92
2022/01/05 04:48:06;;;;;;;7.50;3.95;;;;;;;7.14;87.58;97725.84;4862422;29;20050;-93
2022/01/05 04:50:41;;;;;;;6.13;3.63;;;;;;;6.84;87.34;97683.31;4863474;29;20046;-91
2022/01/05 04:53:14;;;;;;;12.93;4.95;;;;;;;7.17;87.52;97744.41;4846583;29;20057;-91
2022/01/05 04:55:45;;;;;;;9.20;4.82;;;;;;;7.54;87.83;97810.50;4863217;29;20072;-91
2022/01/05 04:58:18;;;;;;;7.32;3.92;;;;;;;7.01;87.92;97711.69;4863091;29;20567;-90
2022/01/05 05:00:54;;;;;;;6.18;3.65;;;;;;;7.96;88.00;97860.47;4863087;29;20050;-90
2022/01/05 05:03:24;;;;;;;8.77;4.32;;;;;;;7.01;88.18;97693.94;4863317;29;20049;-90
2022/01/05 05:05:57;;;;;;;6.80;3.72;;;;;;;7.03;87.86;97704.94;4846979;29;20056;-90
2022/01/05 05:08:31;;;;;;;10.13;4.30;;;;;;;7.21;88.20;97751.06;4863017;29;20057;-91
2022/01/05 05:11:01;;;;;;;7.88;4.10;;;;;;;6.95;88.01;97702.53;4863007;29;20045;-90
2022/01/05 05:13:35;;;;;;;6.80;3.90;;;;;;;7.49;87.75;97797.03;4862924;29;20516;-90
2022/01/05 05:16:11;;;;;;;7.28;3.75;;;;;;;7.51;88.03;97795.31;4862300;29;20516;-91
2022/01/05 05:18:45;;;;;;;7.55;3.80;;;;;;;6.68;88.28;97668.38;4862933;29;20049;-92
2022/01/05 05:21:19;;;;;;;6.18;3.53;;;;;;;6.96;87.96;97718.59;4862022;29;20049;-89
2022/01/05 05:24:06;;;;;;;7.00;3.90;;;;;;;6.96;87.99;97719.41;4862541;29;20132;-93
2022/01/05 05:26:57;;;;;;;7.43;3.67;;;;;;;7.74;88.16;97853.28;4862904;29;20054;-83
2022/01/05 05:29:33;;;;;;;8.52;4.43;;;;;;;7.91;88.39;97871.56;4847281;29;20055;-91
2022/01/05 05:32:14;;;;;;;7.20;3.85;;;;;;;7.95;88.74;97868.09;4846781;29;20049;-86
2022/01/05 05:35:27;;;;;;;9.40;5.03;;;;;;;6.95;88.05;97691.53;4862534;29;20048;-91
2022/01/05 06:11:00;;;;;;;9.65;6.03;;;;;;;7.81;88.74;97875.13;4860172;29;20061;-94
2022/01/05 06:13:52;;;;;;;10.10;6.22;;;;;;;7.13;88.60;97752.06;4862147;29;20445;-93
2022/01/05 06:16:49;;;;;;;11.85;6.07;;;;;;;7.96;88.56;97890.94;4862119;29;20400;-95
2022/01/05 06:19:59;;;;;;;14.20;7.03;;;;;;;7.11;88.84;97753.78;4862536;29;20046;-95
2022/01/05 06:22:41;;;;;;;10.15;6.47;;;;;;;7.13;88.97;97767.28;4863593;29;20057;-94
2022/01/05 06:25:22;;;;;;;13.27;5.93;;;;;;;7.16;89.16;97787.53;4862411;29;20097;-94
2022/01/05 06:28:18;;;;;;;10.85;6.18;;;;;;;7.14;89.10;97789.25;4859338;29;20049;-95
2022/01/05 06:30:49;;;;;;;9.88;5.63;;;;;;;7.44;88.94;97834.34;4861932;29;20050;-94
2022/01/05 06:33:19;;;;;;;9.35;5.97;;;;;;;7.17;88.97;97801.88;4861866;29;20136;-92
2022/01/05 06:35:53;;;;;;;11.05;6.25;;;;;;;7.86;89.25;97904.66;4861723;29;20120;-94
2022/01/05 06:38:26;;;;;;;13.05;6.45;;;;;;;7.49;89.22;97863.03;4861851;29;20045;-93
2022/01/05 06:40:59;;;;;;;12.43;7.32;;;;;;;7.57;89.14;97899.28;4845873;29;20057;-91
2022/01/05 06:43:48;;;;;;;11.23;6.18;;;;;;;7.76;89.17;97931.09;4845738;29;20117;-93
2022/01/05 06:46:18;;;;;;;10.70;6.03;;;;;;;6.83;89.11;97777.97;4860473;29;20049;-93
2022/01/05 06:48:51;;;;;;;10.35;6.45;;;;;;;7.47;88.62;97874.06;4845312;29;20057;-93
2022/01/05 06:51:24;;;;;;;10.70;5.75;;;;;;;7.21;89.02;97828.88;4861560;29;20057;-94
2022/01/05 06:53:57;;;;;;;13.25;6.35;;;;;;;7.56;89.36;97889.97;4861602;29;20423;-92
2022/01/05 07:05:24;;;;;;;10.77;6.05;;;;;;;7.74;89.55;97926.91;5041405;23;19931;-90
2022/01/05 07:38:00;;;;;;;11.38;6.50;;;;;;;7.61;90.41;97928.81;4964681;23;20073;-95
2022/01/05 07:51:41;;;;;;;10.25;5.05;;;;;;;7.83;90.94;97996.13;4793470;29;20078;-92
2022/01/05 07:57:35;;;;;;;8.77;4.78;;;;;;;7.21;90.32;97887.22;4986289;23;20058;-92
2022/01/05 08:13:16;;;;;;;10.75;5.72;;;;;;;7.32;90.45;97931.00;5312196;23;20056;-87
2022/01/05 08:22:33;;;;;;;11.77;6.55;;;;;;;7.52;90.84;97994.13;4862518;29;20054;-91
2022/01/05 08:34:20;;;;;;;7.90;4.53;;;;;;;7.84;90.66;98053.69;4911047;23;20069;-91
2022/01/05 08:41:51;;;;;;;11.15;6.32;;;;;;;7.79;90.63;98055.47;5209388;23;20072;-95
2022/01/05 08:55:57;;;;;;;12.75;7.53;;;;;;;7.79;90.88;98040.22;1056232;23;20341;-89
2022/01/05 09:03:55;;;;;;;14.75;7.60;;;;;;;6.85;91.28;97875.09;5842383;23;20448;-90
2022/01/05 09:06:51;;;;;;;13.88;7.05;;;;;;;7.92;90.81;98056.94;4881647;29;20060;-94
2022/01/05 09:09:24;;;;;;;10.30;6.10;;;;;;;7.93;90.90;98068.78;4865085;29;20049;-90
2022/01/05 09:11:55;;;;;;;11.80;5.50;;;;;;;7.54;90.86;97993.22;4878513;29;20048;-87
2022/01/05 09:55:41;;;;;;;4.00;1.88;;;;;;;6.59;88.56;97937.16;4860856;29;20072;-85
2022/01/05 10:29:55;;;;;;;3.83;1.70;;;;;;;7.13;86.92;98066.56;4880693;23;20061;-87
2022/01/05 10:33:23;;;;;;;3.30;1.70;;;;;;;7.61;86.84;98142.03;4863790;29;20053;-89
2022/01/05 10:59:15;;;;;;;3.28;1.60;;;;;;;7.41;85.42;98070.44;4897802;23;20227;-91
2022/01/05 11:01:46;;;;;;;3.25;1.70;;;;;;;7.21;84.62;98039.41;4872719;29;20504;-84
2022/01/05 11:09:17;;;;;;;;;;;;;;;;;;;;;
2022/01/05 11:19:40;;;;;;;2.58;1.50;;;;;;;6.90;84.32;98000.97;4989475;23;20461;-92
2022/01/05 11:28:03;;;;;;;2.28;1.40;;;;;;;7.82;84.94;98161.22;5332484;23;20040;-95
2022/01/05 12:55:06;;;;;;;4.38;1.60;;;;;;;7.76;83.41;98223.09;4886649;23;20056;-88
2022/01/05 16:23:07;;;;;;;5.18;2.88;;;;;;;6.44;84.91;98433.97;2528514;23;20341;-87
2022/01/05 16:25:40;;;;;;;4.90;2.90;;;;;;;6.25;84.76;98390.97;4862433;29;20057;-86
2022/01/05 16:28:16;;;;;;;5.10;3.03;;;;;;;6.48;84.52;98420.41;4863636;29;20058;-86
2022/01/05 16:30:49;;;;;;;5.30;3.13;;;;;;;6.43;84.84;98411.19;4847693;29;20068;-86
2022/01/05 16:33:26;;;;;;;5.30;3.10;;;;;;;6.16;84.68;98381.75;4847912;29;20064;-85
2022/01/05 16:35:59;;;;;;;6.90;3.35;;;;;;;6.27;85.13;98390.13;4863189;29;20423;-86
2022/01/05 16:38:36;;;;;;;6.95;3.38;;;;;;;6.46;84.75;98417.06;4846907;29;20467;-85
2022/01/05 16:41:06;;;;;;;6.45;3.83;;;;;;;6.25;84.88;98396.03;4832206;29;20132;-86
2022/01/05 16:43:43;;;;;;;6.38;4.28;;;;;;;6.40;84.86;98437.38;4863467;29;20080;-86
2022/01/05 16:46:19;;;;;;;5.47;3.05;;;;;;;6.36;84.44;98425.53;4863165;29;20172;-86
2022/01/05 16:48:52;;;;;;;4.35;2.42;;;;;;;6.18;84.44;98405.38;4862443;29;20049;-86
2022/01/05 16:51:22;;;;;;;4.53;2.70;;;;;;;6.05;84.83;98388.50;4847005;29;20132;-86
2022/01/05 16:53:58;;;;;;;3.88;1.92;;;;;;;6.20;84.69;98418.00;4863157;29;20101;-86
2022/01/05 17:00:23;;;;;;;5.22;2.10;;;;;;;6.11;84.28;98418.91;4847018;29;20054;-86
2022/01/05 17:02:11;;;;;;;18.48;9.30;;;;;;;6.28;84.55;98450.09;4846855;29;20057;-87
2022/01/05 17:04:48;;;;;;;18.05;6.85;;;;;;;5.93;84.05;98404.59;4846788;29;20441;-87
2022/01/05 17:07:20;;;;;;;14.30;4.88;;;;;;;6.30;84.13;98461.03;4862873;29;20052;-87
2022/01/05 17:09:52;;;;;;;5.03;2.35;;;;;;;5.93;84.19;98411.34;4862716;29;20057;-87
2022/01/05 17:12:28;;;;;;;4.30;1.80;;;;;;;6.15;83.15;98450.97;4862930;29;20111;-87
2022/01/05 17:14:58;;;;;;;2.65;1.52;;;;;;;6.16;82.95;98461.94;4846519;29;20404;-88
2022/01/05 17:17:43;;;;;;;3.75;1.67;;;;;;;6.00;82.01;98435.78;4862838;29;20056;-88
2022/01/05 17:20:18;;;;;;;3.22;1.40;;;;;;;6.27;81.43;98471.19;4862842;29;20053;-88
2022/01/05 17:22:48;;;;;;;6.50;2.80;;;;;;;6.28;81.10;98483.00;4862415;29;20050;-87
2022/01/05 17:25:24;;;;;;;7.05;4.43;;;;;;;6.12;79.85;98478.81;4862973;29;20052;-88
2022/01/05 17:27:57;;;;;;;3.20;1.75;;;;;;;6.07;79.17;98472.91;4862695;29;20519;-87
2022/01/05 17:30:30;;;;;;;2.53;1.20;;;;;;;6.13;78.06;98503.31;4846258;29;20136;-88
2022/01/05 17:33:03;;;;;;;2.08;0.95;;;;;;;5.97;76.75;98502.47;4862410;29;20077;-89
2022/01/05 17:35:38;;;;;;;1.42;0.88;;;;;;;5.92;75.83;98498.28;4845885;29;20045;-87
2022/01/05 17:38:13;;;;;;;2.10;1.10;;;;;;;5.66;74.46;98464.53;4846369;29;20057;-87
2022/01/05 17:40:48;;;;;;;1.38;0.82;;;;;;;5.76;73.43;98501.66;4862412;29;20045;-88
2022/01/05 17:43:23;;;;;;;1.73;0.93;;;;;;;5.82;72.65;98506.69;4846293;29;20061;-88
2022/01/05 17:45:59;;;;;;;1.27;0.80;;;;;;;5.85;71.85;98532.06;4862290;29;20072;-88
2022/01/05 17:48:32;;;;;;;1.85;1.10;;;;;;;5.60;71.62;98500.81;4862535;29;20049;-88
2022/01/05 17:51:04;;;;;;;1.20;0.80;;;;;;;5.63;70.36;98510.09;4862329;29;20091;-87
2022/01/05 17:53:37;;;;;;;;;;;;;;;5.79;70.13;98542.97;4862478;29;20045;-88
2022/01/05 17:56:12;;;;;;;1.77;0.80;;;;;;;5.37;69.24;98498.25;4862544;29;20283;-88
2022/01/05 17:58:48;;;;;;;1.48;0.85;;;;;;;5.41;68.85;98525.25;4831924;29;20136;-87
2022/01/05 18:01:18;;;;;;;1.17;0.80;;;;;;;5.58;68.43;98572.50;4861796;29;20049;-88
2022/01/05 18:03:52;;;;;;;1.38;0.90;;;;;;;5.26;68.61;98545.47;4862089;29;20098;-88
2022/01/05 18:06:24;;;;;;;1.42;0.90;;;;;;;5.46;67.70;98590.19;4862009;29;20072;-88
2022/01/05 18:09:00;;;;;;;0.90;0.60;;;;;;;5.55;67.60;98602.84;4861953;29;20504;-88
2022/01/05 18:11:36;;;;;;;1.85;0.80;;;;;;;5.54;67.15;98606.25;4845972;29;20049;-88
2022/01/05 18:14:10;;;;;;;2.70;1.02;;;;;;;5.47;67.10;98599.47;4845868;29;20060;-88
2022/01/05 18:16:46;;;;;;;1.60;0.95;;;;;;;5.19;67.05;98551.34;4845217;29;20053;-87
2022/01/05 18:19:21;;;;;;;1.77;1.00;;;;;;;5.51;67.61;98618.88;4861700;29;20053;-87
2022/01/05 18:21:50;;;;;;;2.03;0.88;;;;;;;5.51;67.78;98617.19;4845108;29;20053;-86
2022/01/05 18:24:24;;;;;;;2.53;1.02;;;;;;;5.59;67.51;98614.69;4861292;29;20052;-87
2022/01/05 18:27:00;;;;;;;2.13;0.90;;;;;;;4.90;67.53;98499.88;4861590;29;20045;-87
2022/01/05 18:29:33;;;;;;;3.05;1.15;;;;;;;5.52;67.51;98613.81;4861597;29;20053;-87
2022/01/05 18:32:04;;;;;;;2.35;0.93;;;;;;;5.48;68.10;98616.34;4845100;29;20052;-87
2022/01/05 18:34:35;;;;;;;2.42;1.20;;;;;;;5.50;68.43;98639.94;4845295;29;20061;-87
2022/01/05 18:37:07;;;;;;;4.03;2.30;;;;;;;5.21;68.55;98607.84;4861886;29;20041;-87
2022/01/05 18:39:44;;;;;;;35.47;13.90;;;;;;;5.35;69.00;98636.53;4845269;29;20102;-87
2022/01/05 18:42:26;;;;;;;7.28;3.08;;;;;;;5.08;68.82;98596.00;4818038;29;20082;-87
2022/01/05 18:44:58;;;;;;;15.85;6.15;;;;;;;5.36;68.92;98650.88;4829835;29;20148;-87
2022/01/05 18:47:29;;;;;;;3.33;1.48;;;;;;;5.08;69.08;98605.28;4845017;29;20145;-87
2022/01/05 18:50:04;;;;;;;34.22;13.18;;;;;;;5.06;69.21;98596.84;4861510;29;20408;-87
2022/01/05 18:52:38;;;;;;;16.98;6.40;;;;;;;5.33;69.57;98627.25;4861782;29;20436;-87
2022/01/05 18:55:10;;;;;;;10.20;4.53;;;;;;;5.32;69.68;98610.41;4845059;29;20066;-87
2022/01/05 18:57:41;;;;;;;5.57;2.70;;;;;;;4.47;69.96;98472.78;4845606;29;20057;-87
2022/01/05 19:00:16;;;;;;;9.20;3.20;;;;;;;4.99;70.31;98568.16;4861556;29;20057;-88
2022/01/05 19:02:50;;;;;;;3.33;1.40;;;;;;;5.02;70.07;98595.97;4861792;29;20053;-87
2022/01/05 19:05:25;;;;;;;4.55;2.35;;;;;;;4.83;69.57;98594.22;4815380;29;20065;-88
2022/01/05 19:07:59;;;;;;;5.65;2.33;;;;;;;4.14;69.27;98503.78;4861280;29;20404;-88
2022/01/05 19:10:33;;;;;;;3.45;1.45;;;;;;;4.99;69.22;98631.34;4830387;29;20207;-88
2022/01/05 19:13:23;;;;;;;3.85;2.17;;;;;;;4.89;68.97;98619.53;4833584;29;20053;-88
2022/01/05 19:15:59;;;;;;;4.88;2.28;;;;;;;5.10;69.68;98639.84;4849340;29;20050;-88
2022/01/05 19:18:36;;;;;;;2.65;1.30;;;;;;;5.09;69.19;98643.19;4864699;29;20476;-87
2022/01/05 19:21:07;;;;;;;3.08;1.85;;;;;;;5.01;69.21;98665.09;4848822;29;20441;-88
2022/01/05 19:23:39;;;;;;;2.95;1.52;;;;;;;4.60;68.58;98600.84;4864539;29;20113;-89
2022/01/05 19:26:15;;;;;;;4.72;1.60;;;;;;;4.78;68.72;98631.25;4864950;29;20060;-88
2022/01/05 19:28:51;;;;;;;4.20;2.10;;;;;;;5.00;68.60;98663.38;4864595;29;20054;-88
2022/01/05 19:31:25;;;;;;;8.38;2.00;;;;;;;4.97;68.38;98658.31;4832705;29;20092;-89
2022/01/05 19:33:59;;;;;;;3.30;1.58;;;;;;;4.58;68.20;98610.09;4864636;29;20041;-89
2022/01/05 19:36:35;;;;;;;2.75;1.35;;;;;;;4.61;67.65;98617.69;4849308;29;20049;-88
2022/01/05 19:39:10;;;;;;;3.80;1.30;;;;;;;4.83;67.33;98659.91;4848123;29;20077;-88
2022/01/05 19:41:43;;;;;;;3.20;1.10;;;;;;;4.70;66.17;98658.19;4834017;29;20060;-88
2022/01/05 19:44:22;;;;;;;2.67;1.10;;;;;;;4.76;65.38;98703.69;4864479;29;20046;-87
2022/01/05 19:46:52;;;;;;;2.90;1.33;;;;;;;4.64;65.13;98696.03;4864730;29;20049;-87
2022/01/05 19:49:27;;;;;;;3.33;1.52;;;;;;;4.75;65.02;98719.72;4864670;29;20049;-88
2022/01/05 19:52:01;;;;;;;2.75;1.40;;;;;;;4.72;64.53;98722.22;4864358;29;20051;-87
2022/01/05 19:54:39;;;;;;;4.35;1.30;;;;;;;4.38;64.38;98682.38;4833313;29;20054;-88
2022/01/05 20:00:54;;;;;;;4.57;1.30;;;;;;;4.57;64.04;98732.19;4864394;29;20453;-88
2022/01/05 20:03:46;;;;;;;1.83;0.93;;;;;;;4.53;64.03;98733.88;4804760;29;20060;-88
2022/01/05 20:06:19;;;;;;;2.50;1.20;;;;;;;4.50;64.03;98730.44;4843048;29;20050;-88
2022/01/05 20:08:54;;;;;;;2.55;1.17;;;;;;;4.42;64.16;98727.00;4845874;29;20098;-89
2022/01/05 20:11:24;;;;;;;2.30;1.27;;;;;;;4.24;63.74;98692.38;4845827;29;20145;-91
2022/01/05 20:14:02;;;;;;;3.42;1.63;;;;;;;4.39;64.42;98711.84;4845826;29;20057;-88
2022/01/05 20:16:40;;;;;;;1.75;1.10;;;;;;;4.48;64.31;98722.03;4828966;29;20065;-90
2022/01/05 20:19:09;;;;;;;2.22;1.10;;;;;;;4.42;64.36;98725.34;4845436;29;20052;-89
2022/01/05 20:21:40;;;;;;;3.15;1.30;;;;;;;4.43;64.01;98713.56;4845838;29;20401;-89
2022/01/05 20:24:10;;;;;;;2.88;1.38;;;;;;;4.31;64.59;98688.22;4844367;29;20513;-89
2022/01/05 20:26:43;;;;;;;5.57;1.58;;;;;;;4.41;64.21;98707.66;4844416;29;20529;-89
2022/01/05 20:29:13;;;;;;;2.25;1.20;;;;;;;4.23;64.24;98680.56;4829215;29;20517;-89
2022/01/05 20:31:48;;;;;;;3.55;1.42;;;;;;;4.46;64.57;98716.94;4845404;29;20064;-88
2022/01/05 20:34:20;;;;;;;3.83;1.30;;;;;;;4.47;64.58;98715.25;4844117;29;20497;-88
2022/01/05 20:36:50;;;;;;;2.45;1.20;;;;;;;4.39;64.95;98702.56;4845415;29;20050;-89
2022/01/05 20:39:23;;;;;;;3.00;1.48;;;;;;;4.29;65.20;98688.22;4844167;29;20054;-88
2022/01/05 20:41:57;;;;;;;3.17;1.42;;;;;;;4.07;65.11;98664.47;4844563;29;20058;-88
2022/01/05 20:44:27;;;;;;;3.97;1.67;;;;;;;4.40;65.08;98718.56;4844215;29;20486;-89
2022/01/05 20:46:59;;;;;;;3.53;1.30;;;;;;;4.13;64.73;98688.06;4845084;29;20057;-88
2022/01/05 20:49:35;;;;;;;3.28;1.45;;;;;;;4.25;64.99;98719.28;4843865;29;20501;-89
2022/01/05 20:52:07;;;;;;;2.42;1.58;;;;;;;4.23;65.21;98720.13;4845025;29;20413;-89
2022/01/05 20:54:40;;;;;;;3.08;1.40;;;;;;;3.33;65.84;98604.88;4828824;29;20058;-89
2022/01/05 20:57:11;;;;;;;3.50;1.40;;;;;;;3.84;65.82;98691.16;4845688;29;20056;-88
2022/01/05 20:59:42;;;;;;;4.30;1.52;;;;;;;4.02;65.83;98726.69;4843683;29;20042;-88
2022/01/05 21:02:17;;;;;;;2.67;1.38;;;;;;;4.04;65.92;98722.47;4844769;29;20092;-89
2022/01/05 21:04:52;;;;;;;2.63;1.48;;;;;;;4.01;65.55;98727.50;4828890;29;20409;-88
2022/01/05 21:07:51;;;;;;;3.42;1.80;;;;;;;3.96;66.45;98736.69;4844672;29;20056;-89
2022/01/05 21:10:26;;;;;;;4.65;1.55;;;;;;;3.85;66.65;98738.28;4828799;29;20057;-88
2022/01/05 21:13:02;;;;;;;4.35;1.90;;;;;;;3.84;67.84;98736.56;4828910;29;20049;-89
2022/01/05 21:15:35;;;;;;;3.15;1.60;;;;;;;3.73;67.58;98720.47;4844583;29;20060;-89
2022/01/05 21:18:14;;;;;;;2.60;1.45;;;;;;;3.18;67.49;98643.38;4829007;29;20049;-89
2022/01/05 21:20:46;;;;;;;2.47;1.38;;;;;;;3.58;68.10;98737.97;4844500;29;20053;-89
2022/01/05 21:23:16;;;;;;;4.50;1.80;;;;;;;3.49;69.02;98742.91;4798706;29;20374;-89
2022/01/05 21:25:51;;;;;;;2.83;1.52;;;;;;;3.35;69.28;98734.31;4844357;29;20544;-88
2022/01/05 21:28:23;;;;;;;3.53;1.50;;;;;;;3.05;69.91;98684.38;4844596;29;20495;-89
2022/01/05 21:30:58;;;;;;;2.42;1.40;;;;;;;3.29;70.02;98734.22;4844343;29;20046;-89
2022/01/05 21:33:48;;;;;;;4.25;1.60;;;;;;;3.35;69.86;98739.38;4844359;29;20075;-89
2022/01/05 21:36:19;;;;;;;2.28;1.40;;;;;;;3.17;69.86;98698.78;4844148;29;20146;-89
2022/01/05 21:38:52;;;;;;;4.25;1.63;;;;;;;3.23;69.44;98703.91;4843138;29;20046;-89
2022/01/05 21:41:23;;;;;;;2.70;1.38;;;;;;;3.39;68.89;98731.84;4828465;29;20058;-88
2022/01/05 21:43:58;;;;;;;4.75;1.70;;;;;;;3.39;68.88;98746.13;4843975;29;20046;-89
2022/01/05 21:46:29;;;;;;;4.00;1.60;;;;;;;3.48;68.00;98750.47;4844083;29;20054;-90
2022/01/05 21:49:04;;;;;;;3.53;1.58;;;;;;;3.10;67.86;98666.78;4843179;29;20124;-89
2022/01/05 21:51:38;;;;;;;3.60;1.50;;;;;;;3.59;67.72;98744.72;4842987;29;20041;-89
2022/01/05 21:54:08;;;;;;;3.75;1.63;;;;;;;3.65;67.25;98739.72;4843895;29;20054;-90
2022/01/05 21:56:38;;;;;;;3.33;1.77;;;;;;;3.27;66.98;98680.44;4842981;29;20060;-89
2022/01/05 21:59:12;;;;;;;3.60;1.65;;;;;;;3.23;67.26;98666.09;4843786;29;20103;-89
2022/01/05 22:01:42;;;;;;;3.80;2.08;;;;;;;3.71;66.74;98749.91;4843744;29;20562;-88